sensor_id;sensor_type;location;lat;lon;timestamp;P1;durP1;ratioP1;P2;durP2;ratioP2
11731;SDS011;5922;53.734;10.258;2023-08-20T00:01:16;14.67;;;7.63;;
11731;SDS011;5922;53.734;10.258;2023-08-20T00:04:02;16.07;;;8.00;;
11731;SDS011;5922;53.734;10.258;2023-08-20T00:06:41;10.57;;;7.47;;
11731;SDS011;5922;53.734;10.258;2023-08-20T00:09:25;12.47;;;7.20;;
11731;SDS011;5922;53.734;10.258;2023-08-20T00:12:10;13.17;;;7.97;;
11731;SDS011;5922;53.734;10.258;2023-08-20T00:14:53;12.73;;;7.77;;
11731;SDS011;5922;53.734;10.258;2023-08-20T00:17:24;15.60;;;8.07;;
11731;SDS011;5922;53.734;10.258;2023-08-20T00:20:08;12.00;;;7.73;;
11731;SDS011;5922;53.734;10.258;2023-08-20T00:22:55;15.67;;;7.73;;
11731;SDS011;5922;53.734;10.258;2023-08-20T00:25:39;10.73;;;7.87;;
11731;SDS011;5922;53.734;10.258;2023-08-20T00:28:21;12.03;;;7.33;;
11731;SDS011;5922;53.734;10.258;2023-08-20T00:34:02;13.27;;;7.90;;
11731;SDS011;5922;53.734;10.258;2023-08-20T00:36:37;12.47;;;7.67;;
11731;SDS011;5922;53.734;10.258;2023-08-20T00:39:35;16.43;;;8.10;;
11731;SDS011;5922;53.734;10.258;2023-08-20T00:42:15;13.23;;;8.17;;
11731;SDS011;5922;53.734;10.258;2023-08-20T00:44:57;12.90;;;8.27;;
11731;SDS011;5922;53.734;10.258;2023-08-20T00:47:40;12.10;;;8.53;;
11731;SDS011;5922;53.734;10.258;2023-08-20T00:50:23;14.37;;;8.50;;
11731;SDS011;5922;53.734;10.258;2023-08-20T00:52:58;13.53;;;7.73;;
11731;SDS011;5922;53.734;10.258;2023-08-20T00:55:36;15.43;;;8.07;;
11731;SDS011;5922;53.734;10.258;2023-08-20T00:58:18;10.60;;;7.83;;
11731;SDS011;5922;53.734;10.258;2023-08-20T01:00:58;13.43;;;7.57;;
11731;SDS011;5922;53.734;10.258;2023-08-20T01:03:31;13.80;;;8.30;;
11731;SDS011;5922;53.734;10.258;2023-08-20T01:06:30;10.47;;;7.30;;
11731;SDS011;5922;53.734;10.258;2023-08-20T01:09:21;11.63;;;7.50;;
11731;SDS011;5922;53.734;10.258;2023-08-20T01:11:55;10.60;;;7.87;;
11731;SDS011;5922;53.734;10.258;2023-08-20T01:14:23;12.67;;;7.70;;
11731;SDS011;5922;53.734;10.258;2023-08-20T01:16:56;10.53;;;7.73;;
11731;SDS011;5922;53.734;10.258;2023-08-20T01:19:24;15.47;;;8.50;;
11731;SDS011;5922;53.734;10.258;2023-08-20T01:39:56;10.33;;;7.67;;
11731;SDS011;5922;53.734;10.258;2023-08-20T01:42:23;11.30;;;7.83;;
11731;SDS011;5922;53.734;10.258;2023-08-20T01:44:50;13.43;;;8.47;;
11731;SDS011;5922;53.734;10.258;2023-08-20T01:47:17;14.17;;;8.10;;
11731;SDS011;5922;53.734;10.258;2023-08-20T01:49:44;14.47;;;8.17;;
11731;SDS011;5922;53.734;10.258;2023-08-20T01:52:17;13.07;;;8.17;;
11731;SDS011;5922;53.734;10.258;2023-08-20T01:54:44;15.93;;;8.80;;
11731;SDS011;5922;53.734;10.258;2023-08-20T01:57:25;12.60;;;8.40;;
11731;SDS011;5922;53.734;10.258;2023-08-20T01:59:52;14.17;;;8.27;;
11731;SDS011;5922;53.734;10.258;2023-08-20T02:02:19;12.03;;;8.13;;
11731;SDS011;5922;53.734;10.258;2023-08-20T02:04:47;10.53;;;7.90;;
11731;SDS011;5922;53.734;10.258;2023-08-20T02:07:14;13.37;;;8.27;;
11731;SDS011;5922;53.734;10.258;2023-08-20T02:09:41;11.87;;;7.47;;
11731;SDS011;5922;53.734;10.258;2023-08-20T02:12:08;10.63;;;7.87;;
11731;SDS011;5922;53.734;10.258;2023-08-20T02:14:37;13.33;;;8.17;;
11731;SDS011;5922;53.734;10.258;2023-08-20T02:17:06;10.97;;;8.50;;
11731;SDS011;5922;53.734;10.258;2023-08-20T02:19:33;12.20;;;8.03;;
11731;SDS011;5922;53.734;10.258;2023-08-20T02:22:01;11.17;;;8.03;;
11731;SDS011;5922;53.734;10.258;2023-08-20T02:24:28;13.07;;;8.67;;
11731;SDS011;5922;53.734;10.258;2023-08-20T02:26:56;12.50;;;8.40;;
11731;SDS011;5922;53.734;10.258;2023-08-20T02:29:23;13.07;;;8.80;;
11731;SDS011;5922;53.734;10.258;2023-08-20T02:31:52;11.17;;;8.60;;
11731;SDS011;5922;53.734;10.258;2023-08-20T02:34:19;13.30;;;8.50;;
11731;SDS011;5922;53.734;10.258;2023-08-20T02:36:46;17.00;;;8.10;;
11731;SDS011;5922;53.734;10.258;2023-08-20T02:39:17;10.23;;;8.27;;
11731;SDS011;5922;53.734;10.258;2023-08-20T02:41:45;13.70;;;8.90;;
11731;SDS011;5922;53.734;10.258;2023-08-20T02:44:12;12.47;;;8.80;;
11731;SDS011;5922;53.734;10.258;2023-08-20T02:46:39;15.27;;;9.40;;
11731;SDS011;5922;53.734;10.258;2023-08-20T02:49:08;15.70;;;8.83;;
11731;SDS011;5922;53.734;10.258;2023-08-20T02:51:37;11.70;;;8.43;;
11731;SDS011;5922;53.734;10.258;2023-08-20T02:54:04;12.07;;;8.13;;
11731;SDS011;5922;53.734;10.258;2023-08-20T02:56:32;10.93;;;8.60;;
11731;SDS011;5922;53.734;10.258;2023-08-20T02:58:59;12.43;;;8.87;;
11731;SDS011;5922;53.734;10.258;2023-08-20T03:01:27;11.87;;;9.20;;
11731;SDS011;5922;53.734;10.258;2023-08-20T03:03:58;10.00;;;8.03;;
11731;SDS011;5922;53.734;10.258;2023-08-20T03:06:26;13.07;;;8.83;;
11731;SDS011;5922;53.734;10.258;2023-08-20T03:08:56;11.40;;;9.23;;
11731;SDS011;5922;53.734;10.258;2023-08-20T03:11:23;18.60;;;10.00;;
11731;SDS011;5922;53.734;10.258;2023-08-20T03:13:51;17.10;;;9.33;;
11731;SDS011;5922;53.734;10.258;2023-08-20T03:16:18;18.70;;;9.93;;
11731;SDS011;5922;53.734;10.258;2023-08-20T03:18:45;28.10;;;10.13;;
11731;SDS011;5922;53.734;10.258;2023-08-20T03:21:12;19.57;;;9.07;;
11731;SDS011;5922;53.734;10.258;2023-08-20T03:23:41;40.13;;;9.07;;
11731;SDS011;5922;53.734;10.258;2023-08-20T03:26:09;15.70;;;9.73;;
11731;SDS011;5922;53.734;10.258;2023-08-20T03:28:36;35.23;;;9.30;;
11731;SDS011;5922;53.734;10.258;2023-08-20T03:31:04;31.33;;;8.80;;
11731;SDS011;5922;53.734;10.258;2023-08-20T03:33:32;28.83;;;7.33;;
11731;SDS011;5922;53.734;10.258;2023-08-20T03:35:58;28.50;;;7.00;;
11731;SDS011;5922;53.734;10.258;2023-08-20T03:38:25;10.37;;;6.60;;
11731;SDS011;5922;53.734;10.258;2023-08-20T03:40:54;12.60;;;6.67;;
11731;SDS011;5922;53.734;10.258;2023-08-20T03:43:22;19.73;;;6.90;;
11731;SDS011;5922;53.734;10.258;2023-08-20T03:45:50;21.60;;;7.47;;
11731;SDS011;5922;53.734;10.258;2023-08-20T03:48:17;18.17;;;7.60;;
11731;SDS011;5922;53.734;10.258;2023-08-20T03:50:46;12.43;;;7.40;;
11731;SDS011;5922;53.734;10.258;2023-08-20T03:53:13;13.70;;;7.37;;
11731;SDS011;5922;53.734;10.258;2023-08-20T03:55:40;15.43;;;7.87;;
11731;SDS011;5922;53.734;10.258;2023-08-20T03:58:09;8.47;;;7.27;;
11731;SDS011;5922;53.734;10.258;2023-08-20T04:00:36;11.73;;;7.33;;
11731;SDS011;5922;53.734;10.258;2023-08-20T04:03:04;10.47;;;7.40;;
11731;SDS011;5922;53.734;10.258;2023-08-20T04:05:37;9.63;;;7.70;;
11731;SDS011;5922;53.734;10.258;2023-08-20T04:08:20;8.97;;;7.17;;
11731;SDS011;5922;53.734;10.258;2023-08-20T04:10:48;14.43;;;7.20;;
11731;SDS011;5922;53.734;10.258;2023-08-20T04:13:16;9.80;;;6.87;;
11731;SDS011;5922;53.734;10.258;2023-08-20T04:15:44;8.07;;;7.27;;
11731;SDS011;5922;53.734;10.258;2023-08-20T04:18:12;21.47;;;7.10;;
11731;SDS011;5922;53.734;10.258;2023-08-20T04:20:39;17.83;;;7.47;;
11731;SDS011;5922;53.734;10.258;2023-08-20T04:23:11;12.47;;;7.17;;
11731;SDS011;5922;53.734;10.258;2023-08-20T04:25:39;22.00;;;7.27;;
11731;SDS011;5922;53.734;10.258;2023-08-20T04:28:21;14.27;;;6.70;;
11731;SDS011;5922;53.734;10.258;2023-08-20T04:30:48;26.13;;;6.30;;
11731;SDS011;5922;53.734;10.258;2023-08-20T04:33:15;24.27;;;6.90;;
11731;SDS011;5922;53.734;10.258;2023-08-20T04:35:43;39.27;;;7.10;;
11731;SDS011;5922;53.734;10.258;2023-08-20T04:38:10;25.90;;;7.10;;
11731;SDS011;5922;53.734;10.258;2023-08-20T04:40:37;20.73;;;6.63;;
11731;SDS011;5922;53.734;10.258;2023-08-20T04:43:12;31.47;;;7.13;;
11731;SDS011;5922;53.734;10.258;2023-08-20T04:45:41;31.70;;;7.20;;
11731;SDS011;5922;53.734;10.258;2023-08-20T04:48:08;45.53;;;6.80;;
11731;SDS011;5922;53.734;10.258;2023-08-20T04:50:36;35.00;;;7.50;;
11731;SDS011;5922;53.734;10.258;2023-08-20T04:53:03;17.07;;;7.03;;
11731;SDS011;5922;53.734;10.258;2023-08-20T04:55:31;20.27;;;7.23;;
11731;SDS011;5922;53.734;10.258;2023-08-20T04:57:58;23.30;;;7.60;;
11731;SDS011;5922;53.734;10.258;2023-08-20T05:00:25;20.07;;;7.50;;
11731;SDS011;5922;53.734;10.258;2023-08-20T05:02:55;37.60;;;7.20;;
11731;SDS011;5922;53.734;10.258;2023-08-20T05:05:23;29.47;;;7.30;;
11731;SDS011;5922;53.734;10.258;2023-08-20T05:07:50;21.53;;;7.33;;
11731;SDS011;5922;53.734;10.258;2023-08-20T05:10:26;41.17;;;7.77;;
11731;SDS011;5922;53.734;10.258;2023-08-20T05:12:54;40.07;;;7.07;;
11731;SDS011;5922;53.734;10.258;2023-08-20T05:15:24;34.67;;;7.17;;
11731;SDS011;5922;53.734;10.258;2023-08-20T05:17:51;20.53;;;7.97;;
11731;SDS011;5922;53.734;10.258;2023-08-20T05:20:20;35.37;;;7.80;;
11731;SDS011;5922;53.734;10.258;2023-08-20T05:22:47;20.23;;;8.37;;
11731;SDS011;5922;53.734;10.258;2023-08-20T05:25:14;31.33;;;8.13;;
11731;SDS011;5922;53.734;10.258;2023-08-20T05:27:41;16.40;;;8.07;;
11731;SDS011;5922;53.734;10.258;2023-08-20T05:30:09;22.57;;;9.87;;
11731;SDS011;5922;53.734;10.258;2023-08-20T05:32:36;21.97;;;8.53;;
11731;SDS011;5922;53.734;10.258;2023-08-20T05:35:04;13.37;;;8.70;;
11731;SDS011;5922;53.734;10.258;2023-08-20T05:37:33;20.10;;;7.37;;
11731;SDS011;5922;53.734;10.258;2023-08-20T05:40:00;11.23;;;7.20;;
11731;SDS011;5922;53.734;10.258;2023-08-20T05:42:41;12.77;;;7.97;;
11731;SDS011;5922;53.734;10.258;2023-08-20T05:45:18;10.83;;;7.93;;
11731;SDS011;5922;53.734;10.258;2023-08-20T05:47:53;12.73;;;7.87;;
11731;SDS011;5922;53.734;10.258;2023-08-20T05:50:22;10.67;;;8.50;;
11731;SDS011;5922;53.734;10.258;2023-08-20T05:52:51;9.70;;;7.60;;
11731;SDS011;5922;53.734;10.258;2023-08-20T05:55:19;11.27;;;7.80;;
11731;SDS011;5922;53.734;10.258;2023-08-20T05:57:46;9.33;;;7.97;;
11731;SDS011;5922;53.734;10.258;2023-08-20T06:00:13;10.87;;;8.13;;
11731;SDS011;5922;53.734;10.258;2023-08-20T06:02:44;11.00;;;7.50;;
11731;SDS011;5922;53.734;10.258;2023-08-20T06:05:11;12.90;;;7.40;;
11731;SDS011;5922;53.734;10.258;2023-08-20T06:07:38;10.80;;;7.20;;
11731;SDS011;5922;53.734;10.258;2023-08-20T06:13:03;12.67;;;7.07;;
11731;SDS011;5922;53.734;10.258;2023-08-20T06:15:32;15.13;;;8.03;;
11731;SDS011;5922;53.734;10.258;2023-08-20T06:18:02;14.97;;;6.90;;
11731;SDS011;5922;53.734;10.258;2023-08-20T06:20:30;10.67;;;6.53;;
11731;SDS011;5922;53.734;10.258;2023-08-20T06:22:57;13.67;;;6.83;;
11731;SDS011;5922;53.734;10.258;2023-08-20T06:25:28;10.37;;;6.60;;
11731;SDS011;5922;53.734;10.258;2023-08-20T06:27:55;12.20;;;6.23;;
11731;SDS011;5922;53.734;10.258;2023-08-20T06:30:24;9.90;;;5.67;;
11731;SDS011;5922;53.734;10.258;2023-08-20T06:32:51;12.27;;;6.50;;
11731;SDS011;5922;53.734;10.258;2023-08-20T06:35:18;12.37;;;6.23;;
11731;SDS011;5922;53.734;10.258;2023-08-20T06:37:46;10.47;;;6.33;;
11731;SDS011;5922;53.734;10.258;2023-08-20T06:40:13;11.47;;;6.73;;
11731;SDS011;5922;53.734;10.258;2023-08-20T06:42:40;8.47;;;6.10;;
11731;SDS011;5922;53.734;10.258;2023-08-20T06:45:08;14.23;;;6.07;;
11731;SDS011;5922;53.734;10.258;2023-08-20T06:47:37;8.90;;;4.93;;
11731;SDS011;5922;53.734;10.258;2023-08-20T06:50:04;12.13;;;5.27;;
11731;SDS011;5922;53.734;10.258;2023-08-20T06:52:32;10.80;;;5.47;;
11731;SDS011;5922;53.734;10.258;2023-08-20T06:54:59;9.53;;;4.40;;
11731;SDS011;5922;53.734;10.258;2023-08-20T06:57:27;12.00;;;4.60;;
11731;SDS011;5922;53.734;10.258;2023-08-20T06:59:55;8.80;;;4.47;;
11731;SDS011;5922;53.734;10.258;2023-08-20T07:02:22;9.17;;;4.30;;
11731;SDS011;5922;53.734;10.258;2023-08-20T07:04:51;10.53;;;4.33;;
11731;SDS011;5922;53.734;10.258;2023-08-20T07:07:18;10.27;;;4.47;;
11731;SDS011;5922;53.734;10.258;2023-08-20T07:09:46;9.57;;;4.30;;
11731;SDS011;5922;53.734;10.258;2023-08-20T07:12:13;14.87;;;4.37;;
11731;SDS011;5922;53.734;10.258;2023-08-20T07:14:40;9.57;;;3.90;;
11731;SDS011;5922;53.734;10.258;2023-08-20T07:17:07;11.60;;;4.70;;
11731;SDS011;5922;53.734;10.258;2023-08-20T07:19:35;9.20;;;3.67;;
11731;SDS011;5922;53.734;10.258;2023-08-20T07:22:04;8.80;;;3.97;;
11731;SDS011;5922;53.734;10.258;2023-08-20T07:24:31;7.67;;;3.73;;
11731;SDS011;5922;53.734;10.258;2023-08-20T07:27:00;10.50;;;4.00;;
11731;SDS011;5922;53.734;10.258;2023-08-20T07:29:29;9.73;;;3.77;;
11731;SDS011;5922;53.734;10.258;2023-08-20T07:31:56;9.03;;;3.67;;
11731;SDS011;5922;53.734;10.258;2023-08-20T07:34:23;8.13;;;3.60;;
11731;SDS011;5922;53.734;10.258;2023-08-20T07:36:50;11.40;;;3.80;;
11731;SDS011;5922;53.734;10.258;2023-08-20T07:39:20;12.17;;;3.47;;
11731;SDS011;5922;53.734;10.258;2023-08-20T07:41:47;8.23;;;4.43;;
11731;SDS011;5922;53.734;10.258;2023-08-20T07:44:14;9.67;;;3.83;;
11731;SDS011;5922;53.734;10.258;2023-08-20T07:46:42;9.70;;;4.23;;
11731;SDS011;5922;53.734;10.258;2023-08-20T07:49:09;11.23;;;3.73;;
11731;SDS011;5922;53.734;10.258;2023-08-20T07:51:36;11.50;;;4.07;;
11731;SDS011;5922;53.734;10.258;2023-08-20T08:06:21;7.77;;;3.13;;
11731;SDS011;5922;53.734;10.258;2023-08-20T08:08:53;6.00;;;2.73;;
11731;SDS011;5922;53.734;10.258;2023-08-20T08:11:22;5.53;;;2.80;;
11731;SDS011;5922;53.734;10.258;2023-08-20T08:13:51;4.13;;;2.50;;
11731;SDS011;5922;53.734;10.258;2023-08-20T08:16:29;9.43;;;3.10;;
11731;SDS011;5922;53.734;10.258;2023-08-20T08:19:02;7.40;;;3.00;;
11731;SDS011;5922;53.734;10.258;2023-08-20T08:27:28;10.33;;;4.13;;
11731;SDS011;5922;53.734;10.258;2023-08-20T08:30:01;7.27;;;3.50;;
11731;SDS011;5922;53.734;10.258;2023-08-20T08:32:35;5.90;;;4.00;;
11731;SDS011;5922;53.734;10.258;2023-08-20T08:35:05;8.10;;;4.43;;
11731;SDS011;5922;53.734;10.258;2023-08-20T08:37:49;10.37;;;4.30;;
11731;SDS011;5922;53.734;10.258;2023-08-20T08:40:24;9.03;;;4.33;;
11731;SDS011;5922;53.734;10.258;2023-08-20T08:42:58;9.20;;;3.57;;
11731;SDS011;5922;53.734;10.258;2023-08-20T08:45:44;10.30;;;4.90;;
11731;SDS011;5922;53.734;10.258;2023-08-20T08:48:15;8.17;;;4.30;;
11731;SDS011;5922;53.734;10.258;2023-08-20T08:50:47;7.93;;;4.43;;
11731;SDS011;5922;53.734;10.258;2023-08-20T08:53:28;9.57;;;5.10;;
11731;SDS011;5922;53.734;10.258;2023-08-20T08:56:10;7.77;;;4.70;;
11731;SDS011;5922;53.734;10.258;2023-08-20T08:58:57;7.13;;;3.07;;
11731;SDS011;5922;53.734;10.258;2023-08-20T09:01:48;8.37;;;2.97;;
11731;SDS011;5922;53.734;10.258;2023-08-20T09:04:20;6.97;;;2.63;;
11731;SDS011;5922;53.734;10.258;2023-08-20T09:06:49;3.53;;;2.17;;
11731;SDS011;5922;53.734;10.258;2023-08-20T09:12:20;6.07;;;2.37;;
11731;SDS011;5922;53.734;10.258;2023-08-20T09:14:51;8.37;;;2.80;;
11731;SDS011;5922;53.734;10.258;2023-08-20T09:17:42;7.30;;;2.20;;
11731;SDS011;5922;53.734;10.258;2023-08-20T09:20:43;4.47;;;2.20;;
11731;SDS011;5922;53.734;10.258;2023-08-20T09:23:11;5.73;;;2.37;;
11731;SDS011;5922;53.734;10.258;2023-08-20T09:25:42;7.47;;;2.30;;
11731;SDS011;5922;53.734;10.258;2023-08-20T09:28:18;6.93;;;2.63;;
11731;SDS011;5922;53.734;10.258;2023-08-20T09:30:56;5.13;;;2.10;;
11731;SDS011;5922;53.734;10.258;2023-08-20T09:33:23;6.10;;;2.20;;
11731;SDS011;5922;53.734;10.258;2023-08-20T09:36:29;6.83;;;2.30;;
11731;SDS011;5922;53.734;10.258;2023-08-20T09:38:57;8.17;;;2.57;;
11731;SDS011;5922;53.734;10.258;2023-08-20T09:41:29;6.93;;;2.60;;
11731;SDS011;5922;53.734;10.258;2023-08-20T09:43:58;4.80;;;2.60;;
11731;SDS011;5922;53.734;10.258;2023-08-20T09:46:33;5.50;;;2.77;;
11731;SDS011;5922;53.734;10.258;2023-08-20T09:49:01;7.27;;;2.73;;
11731;SDS011;5922;53.734;10.258;2023-08-20T09:54:21;7.40;;;3.27;;
11731;SDS011;5922;53.734;10.258;2023-08-20T09:56:58;5.53;;;2.60;;
11731;SDS011;5922;53.734;10.258;2023-08-20T09:59:26;5.30;;;2.70;;
11731;SDS011;5922;53.734;10.258;2023-08-20T10:01:58;5.40;;;2.67;;
11731;SDS011;5922;53.734;10.258;2023-08-20T10:04:27;6.93;;;2.93;;
11731;SDS011;5922;53.734;10.258;2023-08-20T10:07:01;7.37;;;2.40;;
11731;SDS011;5922;53.734;10.258;2023-08-20T10:09:35;6.43;;;2.93;;
11731;SDS011;5922;53.734;10.258;2023-08-20T10:12:20;4.63;;;2.60;;
11731;SDS011;5922;53.734;10.258;2023-08-20T10:14:47;4.77;;;3.00;;
11731;SDS011;5922;53.734;10.258;2023-08-20T10:17:19;5.70;;;2.60;;
11731;SDS011;5922;53.734;10.258;2023-08-20T10:19:51;4.93;;;2.37;;
11731;SDS011;5922;53.734;10.258;2023-08-20T10:22:50;6.70;;;2.80;;
11731;SDS011;5922;53.734;10.258;2023-08-20T10:25:27;6.27;;;2.50;;
11731;SDS011;5922;53.734;10.258;2023-08-20T10:28:13;6.70;;;2.60;;
11731;SDS011;5922;53.734;10.258;2023-08-20T10:34:04;4.37;;;2.23;;
11731;SDS011;5922;53.734;10.258;2023-08-20T10:38:01;6.37;;;2.53;;
11731;SDS011;5922;53.734;10.258;2023-08-20T10:40:23;5.60;;;2.20;;
11731;SDS011;5922;53.734;10.258;2023-08-20T10:42:46;5.43;;;2.17;;
11731;SDS011;5922;53.734;10.258;2023-08-20T10:45:20;5.73;;;2.30;;
11731;SDS011;5922;53.734;10.258;2023-08-20T10:47:49;3.13;;;2.00;;
11731;SDS011;5922;53.734;10.258;2023-08-20T10:50:33;5.50;;;2.53;;
11731;SDS011;5922;53.734;10.258;2023-08-20T10:58:57;5.70;;;2.50;;
11731;SDS011;5922;53.734;10.258;2023-08-20T11:01:32;6.47;;;2.23;;
11731;SDS011;5922;53.734;10.258;2023-08-20T11:04:04;4.90;;;2.37;;
11731;SDS011;5922;53.734;10.258;2023-08-20T11:12:09;5.53;;;2.20;;
11731;SDS011;5922;53.734;10.258;2023-08-20T11:14:38;6.67;;;2.20;;
11731;SDS011;5922;53.734;10.258;2023-08-20T11:17:09;3.87;;;2.13;;
11731;SDS011;5922;53.734;10.258;2023-08-20T11:19:40;6.50;;;2.60;;
11731;SDS011;5922;53.734;10.258;2023-08-20T11:22:10;5.20;;;2.27;;
11731;SDS011;5922;53.734;10.258;2023-08-20T11:28:03;4.83;;;2.47;;
11731;SDS011;5922;53.734;10.258;2023-08-20T11:30:31;4.80;;;2.43;;
11731;SDS011;5922;53.734;10.258;2023-08-20T11:33:05;5.80;;;2.07;;
11731;SDS011;5922;53.734;10.258;2023-08-20T11:38:41;4.47;;;2.23;;
11731;SDS011;5922;53.734;10.258;2023-08-20T11:41:27;6.07;;;2.83;;
11731;SDS011;5922;53.734;10.258;2023-08-20T11:44:02;4.97;;;2.57;;
11731;SDS011;5922;53.734;10.258;2023-08-20T11:47:11;4.57;;;2.33;;
11731;SDS011;5922;53.734;10.258;2023-08-20T11:50:06;4.00;;;2.20;;
11731;SDS011;5922;53.734;10.258;2023-08-20T11:52:36;4.40;;;2.43;;
11731;SDS011;5922;53.734;10.258;2023-08-20T11:55:23;7.43;;;2.00;;
11731;SDS011;5922;53.734;10.258;2023-08-20T11:57:56;4.40;;;2.07;;
11731;SDS011;5922;53.734;10.258;2023-08-20T12:00:34;8.63;;;2.23;;
11731;SDS011;5922;53.734;10.258;2023-08-20T12:03:04;3.67;;;2.07;;
11731;SDS011;5922;53.734;10.258;2023-08-20T12:05:45;6.43;;;2.43;;
11731;SDS011;5922;53.734;10.258;2023-08-20T12:14:17;6.83;;;2.50;;
11731;SDS011;5922;53.734;10.258;2023-08-20T12:20:13;4.00;;;1.90;;
11731;SDS011;5922;53.734;10.258;2023-08-20T12:29:01;5.88;;;2.38;;
11731;SDS011;5922;53.734;10.258;2023-08-20T12:31:38;6.57;;;2.33;;
11731;SDS011;5922;53.734;10.258;2023-08-20T12:37:24;6.43;;;2.40;;
11731;SDS011;5922;53.734;10.258;2023-08-20T12:39:57;4.93;;;2.03;;
11731;SDS011;5922;53.734;10.258;2023-08-20T12:42:43;6.45;;;2.40;;
11731;SDS011;5922;53.734;10.258;2023-08-20T12:45:29;5.70;;;2.13;;
11731;SDS011;5922;53.734;10.258;2023-08-20T12:48:34;3.47;;;2.15;;
11731;SDS011;5922;53.734;10.258;2023-08-20T12:51:21;5.90;;;1.92;;
11731;SDS011;5922;53.734;10.258;2023-08-20T12:54:13;6.35;;;2.10;;
11731;SDS011;5922;53.734;10.258;2023-08-20T13:00:39;3.35;;;1.98;;
11731;SDS011;5922;53.734;10.258;2023-08-20T13:03:05;4.20;;;2.17;;
11731;SDS011;5922;53.734;10.258;2023-08-20T13:09:00;4.60;;;2.05;;
11731;SDS011;5922;53.734;10.258;2023-08-20T13:17:29;4.15;;;2.10;;
11731;SDS011;5922;53.734;10.258;2023-08-20T13:20:08;3.70;;;2.17;;
11731;SDS011;5922;53.734;10.258;2023-08-20T13:22:42;5.73;;;2.20;;
11731;SDS011;5922;53.734;10.258;2023-08-20T13:25:18;6.53;;;2.03;;
11731;SDS011;5922;53.734;10.258;2023-08-20T13:30:52;3.03;;;2.00;;
11731;SDS011;5922;53.734;10.258;2023-08-20T13:33:43;5.47;;;2.03;;
11731;SDS011;5922;53.734;10.258;2023-08-20T13:39:05;4.47;;;2.23;;
11731;SDS011;5922;53.734;10.258;2023-08-20T13:41:48;5.47;;;2.10;;
11731;SDS011;5922;53.734;10.258;2023-08-20T13:44:38;3.87;;;1.83;;
11731;SDS011;5922;53.734;10.258;2023-08-20T13:47:08;4.03;;;1.90;;
11731;SDS011;5922;53.734;10.258;2023-08-20T13:49:45;3.83;;;1.90;;
11731;SDS011;5922;53.734;10.258;2023-08-20T13:52:34;3.05;;;1.80;;
11731;SDS011;5922;53.734;10.258;2023-08-20T14:04:10;5.68;;;2.03;;
11731;SDS011;5922;53.734;10.258;2023-08-20T14:06:54;4.93;;;1.92;;
11731;SDS011;5922;53.734;10.258;2023-08-20T14:09:24;4.32;;;1.92;;
11731;SDS011;5922;53.734;10.258;2023-08-20T14:11:51;3.97;;;2.00;;
11731;SDS011;5922;53.734;10.258;2023-08-20T14:14:20;3.33;;;1.80;;
11731;SDS011;5922;53.734;10.258;2023-08-20T14:16:47;4.80;;;1.80;;
11731;SDS011;5922;53.734;10.258;2023-08-20T14:19:15;3.95;;;1.92;;
11731;SDS011;5922;53.734;10.258;2023-08-20T14:21:44;4.55;;;1.90;;
11731;SDS011;5922;53.734;10.258;2023-08-20T14:24:19;3.83;;;2.10;;
11731;SDS011;5922;53.734;10.258;2023-08-20T14:27:14;4.70;;;2.50;;
11731;SDS011;5922;53.734;10.258;2023-08-20T14:29:53;3.03;;;1.73;;
11731;SDS011;5922;53.734;10.258;2023-08-20T14:33:42;2.08;;;1.48;;
11731;SDS011;5922;53.734;10.258;2023-08-20T14:35:13;4.60;;;1.98;;
11731;SDS011;5922;53.734;10.258;2023-08-20T14:37:40;2.55;;;1.52;;
11731;SDS011;5922;53.734;10.258;2023-08-20T14:40:10;2.80;;;1.60;;
11731;SDS011;5922;53.734;10.258;2023-08-20T14:42:41;4.03;;;1.83;;
11731;SDS011;5922;53.734;10.258;2023-08-20T14:45:11;3.33;;;1.92;;
11731;SDS011;5922;53.734;10.258;2023-08-20T14:47:52;4.07;;;1.80;;
11731;SDS011;5922;53.734;10.258;2023-08-20T14:50:28;2.83;;;1.50;;
11731;SDS011;5922;53.734;10.258;2023-08-20T14:53:04;3.10;;;1.45;;
11731;SDS011;5922;53.734;10.258;2023-08-20T14:55:33;3.03;;;1.73;;
11731;SDS011;5922;53.734;10.258;2023-08-20T14:58:00;3.85;;;1.80;;
11731;SDS011;5922;53.734;10.258;2023-08-20T15:00:30;5.38;;;1.77;;
11731;SDS011;5922;53.734;10.258;2023-08-20T15:03:01;5.85;;;1.85;;
11731;SDS011;5922;53.734;10.258;2023-08-20T15:05:29;4.38;;;1.60;;
11731;SDS011;5922;53.734;10.258;2023-08-20T15:10:40;4.70;;;1.67;;
11731;SDS011;5922;53.734;10.258;2023-08-20T15:13:07;7.75;;;2.42;;
11731;SDS011;5922;53.734;10.258;2023-08-20T15:15:55;3.83;;;1.65;;
11731;SDS011;5922;53.734;10.258;2023-08-20T15:18:27;3.22;;;1.77;;
11731;SDS011;5922;53.734;10.258;2023-08-20T15:21:05;4.55;;;1.85;;
11731;SDS011;5922;53.734;10.258;2023-08-20T15:23:36;5.47;;;2.28;;
11731;SDS011;5922;53.734;10.258;2023-08-20T15:26:08;3.50;;;1.60;;
11731;SDS011;5922;53.734;10.258;2023-08-20T15:28:35;5.65;;;1.88;;
11731;SDS011;5922;53.734;10.258;2023-08-20T15:31:02;3.47;;;1.60;;
11731;SDS011;5922;53.734;10.258;2023-08-20T15:33:30;4.57;;;1.63;;
11731;SDS011;5922;53.734;10.258;2023-08-20T15:35:57;2.92;;;1.50;;
11731;SDS011;5922;53.734;10.258;2023-08-20T15:38:27;3.20;;;1.80;;
11731;SDS011;5922;53.734;10.258;2023-08-20T15:40:55;2.83;;;1.50;;
11731;SDS011;5922;53.734;10.258;2023-08-20T15:43:24;2.50;;;1.45;;
11731;SDS011;5922;53.734;10.258;2023-08-20T15:45:55;3.08;;;1.60;;
11731;SDS011;5922;53.734;10.258;2023-08-20T15:48:25;3.80;;;1.70;;
11731;SDS011;5922;53.734;10.258;2023-08-20T15:50:56;2.20;;;1.40;;
11731;SDS011;5922;53.734;10.258;2023-08-20T15:53:29;3.70;;;1.70;;
11731;SDS011;5922;53.734;10.258;2023-08-20T15:56:02;3.08;;;1.90;;
11731;SDS011;5922;53.734;10.258;2023-08-20T15:58:32;3.67;;;1.65;;
11731;SDS011;5922;53.734;10.258;2023-08-20T16:01:02;3.00;;;1.77;;
11731;SDS011;5922;53.734;10.258;2023-08-20T16:06:18;2.10;;;1.52;;
11731;SDS011;5922;53.734;10.258;2023-08-20T16:08:59;4.18;;;1.65;;
11731;SDS011;5922;53.734;10.258;2023-08-20T16:11:33;5.25;;;1.60;;
11731;SDS011;5922;53.734;10.258;2023-08-20T16:14:02;5.47;;;1.60;;
11731;SDS011;5922;53.734;10.258;2023-08-20T16:16:32;6.38;;;1.80;;
11731;SDS011;5922;53.734;10.258;2023-08-20T16:19:00;2.13;;;1.40;;
11731;SDS011;5922;53.734;10.258;2023-08-20T16:21:27;5.47;;;1.58;;
11731;SDS011;5922;53.734;10.258;2023-08-20T16:23:56;2.92;;;1.50;;
11731;SDS011;5922;53.734;10.258;2023-08-20T16:26:23;4.10;;;1.88;;
11731;SDS011;5922;53.734;10.258;2023-08-20T16:28:50;6.15;;;2.00;;
11731;SDS011;5922;53.734;10.258;2023-08-20T16:31:19;2.20;;;1.63;;
11731;SDS011;5922;53.734;10.258;2023-08-20T16:33:46;4.55;;;1.50;;
11731;SDS011;5922;53.734;10.258;2023-08-20T16:36:13;4.53;;;1.63;;
11731;SDS011;5922;53.734;10.258;2023-08-20T16:38:41;4.40;;;1.70;;
11731;SDS011;5922;53.734;10.258;2023-08-20T16:41:08;7.80;;;2.28;;
11731;SDS011;5922;53.734;10.258;2023-08-20T16:43:35;1.75;;;1.40;;
11731;SDS011;5922;53.734;10.258;2023-08-20T16:46:03;3.75;;;1.90;;
11731;SDS011;5922;53.734;10.258;2023-08-20T16:48:31;5.60;;;2.05;;
11731;SDS011;5922;53.734;10.258;2023-08-20T16:50:59;4.80;;;2.17;;
11731;SDS011;5922;53.734;10.258;2023-08-20T16:53:26;4.07;;;1.77;;
11731;SDS011;5922;53.734;10.258;2023-08-20T16:55:57;3.90;;;2.00;;
11731;SDS011;5922;53.734;10.258;2023-08-20T16:58:35;3.10;;;1.77;;
11731;SDS011;5922;53.734;10.258;2023-08-20T17:01:07;3.47;;;1.70;;
11731;SDS011;5922;53.734;10.258;2023-08-20T17:03:51;4.07;;;1.83;;
11731;SDS011;5922;53.734;10.258;2023-08-20T17:06:18;3.40;;;1.50;;
11731;SDS011;5922;53.734;10.258;2023-08-20T17:08:47;4.53;;;1.52;;
11731;SDS011;5922;53.734;10.258;2023-08-20T17:11:14;5.07;;;1.63;;
11731;SDS011;5922;53.734;10.258;2023-08-20T17:13:42;4.43;;;1.87;;